Time;durP1;ratioP1;P1;durP2;ratioP2;P2;SDS_P1;SDS_P2;PMS_P1;PMS_P2;Temp;Humidity;BMP_temperature;BMP_pressure;BME280_temperature;BME280_humidity;BME280_pressure;Samples;Min_cycle;Max_cycle;Signal;HPM_P1;HPM_P2
2023/11/02 00:02:27;;;;;;;10.52;3.60;;;;;;;7.39;100.00;96459.09;5039711;28;20143;-41
2023/11/02 00:04:55;;;;;;;11.68;3.30;;;;;;;7.41;100.00;96464.97;5042502;28;20030;-41
2023/11/02 00:07:23;;;;;;;12.07;3.85;;;;;;;7.42;100.00;96454.72;5048345;28;20037;-42
2023/11/02 00:09:56;;;;;;;11.45;3.67;;;;;;;7.40;100.00;96449.66;5048855;28;20033;-42
2023/11/02 00:12:29;;;;;;;11.27;2.92;;;;;;;7.40;100.00;96446.91;5048583;28;20032;-43
2023/11/02 00:14:59;;;;;;;7.65;3.13;;;;;;;7.40;100.00;96449.66;5041106;28;20820;-46
2023/11/02 00:17:35;;;;;;;10.68;2.80;;;;;;;7.39;100.00;96439.84;5036554;28;20041;-42
2023/11/02 00:20:07;;;;;;;10.95;3.05;;;;;;;7.39;100.00;96434.34;5049002;28;20033;-43
2023/11/02 00:22:39;;;;;;;10.10;2.95;;;;;;;7.40;100.00;96430.38;5048903;28;20033;-46
2023/11/02 00:25:07;;;;;;;11.83;2.43;;;;;;;7.39;100.00;96428.84;5048764;28;20080;-46
2023/11/02 00:27:33;;;;;;;7.88;3.00;;;;;;;7.39;100.00;96437.09;5036171;28;20037;-43
2023/11/02 00:30:00;;;;;;;10.93;2.90;;;;;;;7.39;100.00;96433.59;5048440;28;20055;-42
2023/11/02 00:32:27;;;;;;;11.43;3.50;;;;;;;7.37;100.00;96425.75;5048246;28;20072;-40
2023/11/02 00:34:54;;;;;;;9.32;3.53;;;;;;;7.38;100.00;96421.03;5041044;28;20041;-41
2023/11/02 00:37:21;;;;;;;16.02;4.00;;;;;;;7.37;100.00;96411.97;5048647;28;20155;-40
2023/11/02 00:39:48;;;;;;;12.20;3.42;;;;;;;7.36;100.00;96407.66;5039912;28;20037;-40
2023/11/02 00:42:15;;;;;;;14.88;3.63;;;;;;;7.35;100.00;96406.91;5048978;28;20099;-40
2023/11/02 00:44:46;;;;;;;10.82;2.63;;;;;;;7.35;100.00;96395.91;5048633;28;20092;-41
2023/11/02 00:47:17;;;;;;;6.90;1.95;;;;;;;7.38;100.00;96404.50;5048676;28;20045;-40
2023/11/02 00:49:44;;;;;;;9.82;2.95;;;;;;;7.38;100.00;96393.50;5046148;28;20036;-41
2023/11/02 00:52:14;;;;;;;5.97;1.80;;;;;;;7.37;100.00;96384.47;5048474;28;20052;-40
2023/11/02 00:54:44;;;;;;;6.82;2.53;;;;;;;7.38;100.00;96382.50;5048491;28;20095;-40
2023/11/02 00:57:12;;;;;;;8.52;3.45;;;;;;;7.39;100.00;96384.81;5048135;28;20049;-40
2023/11/02 00:59:40;;;;;;;5.47;2.20;;;;;;;7.39;100.00;96379.31;5048006;28;20041;-44
2023/11/02 01:02:07;;;;;;;5.85;2.00;;;;;;;7.40;100.00;96372.63;5047531;28;20048;-45
2023/11/02 01:04:43;;;;;;;14.23;3.17;;;;;;;7.40;100.00;96364.34;5037736;28;20075;-43
2023/11/02 01:07:10;;;;;;;11.80;2.80;;;;;;;7.40;100.00;96364.34;5044774;28;20037;-40
2023/11/02 01:09:40;;;;;;;8.00;2.58;;;;;;;7.41;100.00;96365.91;5044099;28;20121;-42
2023/11/02 01:12:07;;;;;;;9.40;2.33;;;;;;;7.41;100.00;96360.41;5047419;28;20131;-40
2023/11/02 01:14:48;;;;;;;10.45;2.65;;;;;;;7.40;100.00;96347.06;5047334;28;20056;-42
2023/11/02 01:17:53;;;;;;;7.10;3.30;;;;;;;7.37;100.00;96351.47;5048344;28;20033;-40
2023/11/02 01:20:39;;;;;;;10.32;2.38;;;;;;;7.36;100.00;96347.16;4947106;29;20047;-41
2023/11/02 01:23:06;;;;;;;13.45;3.20;;;;;;;7.38;100.00;96343.97;4947391;29;20091;-40
2023/11/02 01:25:49;;;;;;;13.60;3.22;;;;;;;7.37;100.00;96343.22;5006364;28;20057;-44
2023/11/02 01:28:18;;;;;;;9.63;2.60;;;;;;;7.39;100.00;96340.78;5045941;28;20056;-40
2023/11/02 01:30:54;;;;;;;14.48;3.63;;;;;;;7.36;100.00;96336.16;5047583;28;20487;-40
2023/11/02 01:33:38;;;;;;;6.50;2.60;;;;;;;7.34;100.00;96333.06;5046545;28;20139;-41
2023/11/02 01:36:06;;;;;;;11.35;2.30;;;;;;;7.34;100.00;96333.06;5044411;28;20071;-40
2023/11/02 01:38:34;;;;;;;17.00;3.13;;;;;;;7.32;100.00;96329.97;5046058;28;20069;-40
2023/11/02 01:41:18;;;;;;;6.47;3.25;;;;;;;7.29;100.00;96326.09;5047047;28;20044;-40
2023/11/02 01:44:10;;;;;;;10.45;2.72;;;;;;;7.28;100.00;96321.06;5046748;28;20453;-45
2023/11/02 01:46:40;;;;;;;11.45;2.67;;;;;;;7.27;100.00;96322.25;5037877;28;20048;-43
2023/11/02 01:49:10;;;;;;;10.95;2.90;;;;;;;7.27;100.00;96327.75;5044133;28;20048;-40
2023/11/02 01:51:52;;;;;;;9.68;2.47;;;;;;;7.26;100.00;96320.69;5038957;28;20076;-40
2023/11/02 01:54:52;;;;;;;8.85;2.42;;;;;;;7.26;100.00;96326.97;5034422;28;20072;-41
2023/11/02 01:57:49;;;;;;;11.63;1.95;;;;;;;7.26;100.00;96318.72;5046796;28;20689;-41
2023/11/02 02:00:21;;;;;;;11.68;2.33;;;;;;;7.28;100.00;96321.78;5038213;28;20045;-40
2023/11/02 02:03:03;;;;;;;11.15;2.30;;;;;;;7.29;100.00;96315.09;5046743;28;20065;-40
2023/11/02 02:05:36;;;;;;;8.07;2.20;;;;;;;7.30;100.00;96316.66;5047187;28;20045;-40
2023/11/02 02:08:24;;;;;;;5.03;2.05;;;;;;;7.31;100.00;96315.44;5021662;28;20062;-40
2023/11/02 02:11:10;;;;;;;15.32;4.60;;;;;;;7.30;100.00;96307.63;5043947;28;20037;-41
2023/11/02 02:14:21;;;;;;;13.48;2.90;;;;;;;7.31;100.00;96311.91;5046092;28;20807;-44
2023/11/02 02:16:54;;;;;;;11.57;2.75;;;;;;;7.32;100.00;96310.72;4981524;28;20076;-42
2023/11/02 02:19:36;;;;;;;13.63;2.75;;;;;;;7.32;100.00;96310.72;5046904;28;20033;-42
2023/11/02 02:22:12;;;;;;;10.10;3.00;;;;;;;7.34;100.00;96305.56;5039559;28;20036;-41
2023/11/02 02:25:12;;;;;;;16.55;4.38;;;;;;;7.32;100.00;96297.75;5047072;28;20080;-41
2023/11/02 02:28:12;;;;;;;14.13;3.25;;;;;;;7.31;100.00;96306.41;5039694;28;20127;-43
2023/11/02 02:31:08;;;;;;;9.20;2.13;;;;;;;7.31;100.00;96306.41;5045766;28;20099;-40
2023/11/02 02:33:45;;;;;;;9.82;2.70;;;;;;;7.31;100.00;96301.69;5035473;28;20087;-40
2023/11/02 02:36:17;;;;;;;9.65;3.05;;;;;;;7.32;100.00;96302.47;5046493;28;20172;-41
2023/11/02 02:38:51;;;;;;;8.55;2.38;;;;;;;7.32;100.00;96296.97;5044954;28;20049;-44
2023/11/02 02:41:21;;;;;;;8.43;2.28;;;;;;;7.30;100.00;96299.38;5046656;28;20041;-40
2023/11/02 02:43:53;;;;;;;10.55;2.83;;;;;;;7.29;100.00;96295.06;5046143;28;20041;-41
2023/11/02 02:46:23;;;;;;;8.10;2.85;;;;;;;7.29;100.00;96308.81;5040703;28;20044;-42
2023/11/02 02:48:49;;;;;;;7.30;2.90;;;;;;;7.27;100.00;96294.72;5045286;28;20045;-40
2023/11/02 02:51:18;;;;;;;7.97;3.13;;;;;;;7.27;100.00;96295.50;5046688;28;20098;-41
2023/11/02 02:53:49;;;;;;;11.98;2.72;;;;;;;7.27;100.00;96284.50;5045516;28;20469;-41
2023/11/02 02:56:23;;;;;;;13.13;3.15;;;;;;;7.24;100.00;96279.09;5041033;28;20037;-41
2023/11/02 02:58:50;;;;;;;7.68;2.10;;;;;;;7.22;100.00;96287.00;5049364;28;20041;-42
2023/11/02 03:01:19;;;;;;;5.72;2.30;;;;;;;7.21;100.00;96290.94;5115297;22;20044;-46
2023/11/02 03:03:48;;;;;;;7.97;2.13;;;;;;;7.21;100.00;96282.69;5069401;28;20052;-48
2023/11/02 03:06:17;;;;;;;10.50;2.83;;;;;;;7.21;100.00;96296.44;5069834;28;20037;-46
2023/11/02 03:08:47;;;;;;;7.32;1.95;;;;;;;7.19;100.00;96296.13;5070269;28;20037;-45
2023/11/02 03:11:15;;;;;;;8.40;1.92;;;;;;;7.19;100.00;96294.16;5070714;28;20060;-47
2023/11/02 03:13:51;;;;;;;8.35;2.35;;;;;;;7.18;100.00;96297.31;5065682;28;20037;-50
2023/11/02 03:16:20;;;;;;;9.20;3.08;;;;;;;7.17;100.00;96301.28;5066631;28;20481;-46
2023/11/02 03:18:47;;;;;;;11.93;2.90;;;;;;;7.12;100.00;96307.31;5068505;28;20486;-43
2023/11/02 03:21:14;;;;;;;11.93;2.63;;;;;;;7.06;100.00;96304.28;5069856;28;20068;-41
2023/11/02 03:23:48;;;;;;;11.18;2.80;;;;;;;7.04;100.00;96287.44;5069382;28;20041;-48
2023/11/02 03:26:24;;;;;;;9.80;2.55;;;;;;;7.02;100.00;96297.31;5069690;28;20040;-44
2023/11/02 03:29:15;;;;;;;10.45;3.08;;;;;;;6.97;100.00;96300.56;5069853;28;20051;-43
2023/11/02 03:31:51;;;;;;;8.25;3.10;;;;;;;6.93;100.00;96292.44;5066407;28;20041;-43
2023/11/02 03:34:29;;;;;;;14.63;2.22;;;;;;;6.88;100.00;96290.19;5069131;28;20131;-48
2023/11/02 03:37:14;;;;;;;8.88;2.55;;;;;;;6.89;100.00;96290.94;5068643;28;20060;-42
2023/11/02 03:39:51;;;;;;;7.72;2.28;;;;;;;6.87;100.00;96283.16;5061361;28;20039;-45
2023/11/02 03:42:30;;;;;;;7.63;2.45;;;;;;;6.85;100.00;96293.81;5069247;28;20052;-47
2023/11/02 03:45:18;;;;;;;6.35;2.10;;;;;;;6.85;100.00;96295.78;5068454;28;20537;-42
2023/11/02 03:48:24;;;;;;;9.00;2.25;;;;;;;6.83;100.00;96284.44;5068478;28;20048;-44
2023/11/02 03:51:18;;;;;;;10.70;3.47;;;;;;;6.84;100.00;96288.72;5057034;28;21736;-43
2023/11/02 03:53:50;;;;;;;12.90;2.05;;;;;;;6.82;100.00;96296.63;5068243;28;20045;-49
2023/11/02 03:56:32;;;;;;;8.70;1.98;;;;;;;6.81;100.00;96292.31;5065421;28;20043;-43
2023/11/02 03:59:12;;;;;;;7.32;2.35;;;;;;;6.77;100.00;96292.41;5068883;28;20456;-45
2023/11/02 04:01:41;;;;;;;8.65;2.60;;;;;;;6.79;100.00;96289.22;5066998;28;20048;-45
2023/11/02 04:04:11;;;;;;;11.35;2.53;;;;;;;6.79;100.00;96303.75;5067441;28;20049;-43
2023/11/02 04:07:05;;;;;;;6.10;2.17;;;;;;;6.77;100.00;96302.63;5065862;28;20494;-48
2023/11/02 04:09:46;;;;;;;10.93;1.95;;;;;;;6.77;100.00;96302.63;5068191;28;20060;-44
2023/11/02 04:12:26;;;;;;;17.15;2.45;;;;;;;6.75;100.00;96298.31;5067696;28;20045;-43
2023/11/02 04:14:56;;;;;;;6.88;1.55;;;;;;;6.77;100.00;96292.41;5066933;28;20040;-47
2023/11/02 04:17:24;;;;;;;8.45;2.80;;;;;;;6.78;100.00;96291.19;5067919;28;20047;-46
2023/11/02 04:19:50;;;;;;;12.50;2.03;;;;;;;6.79;100.00;96291.97;5067817;28;20047;-46
2023/11/02 04:22:17;;;;;;;7.13;2.00;;;;;;;6.78;100.00;96293.94;5062812;28;20716;-43
2023/11/02 04:24:45;;;;;;;6.43;1.30;;;;;;;6.78;100.00;96285.69;5059982;28;20048;-45
2023/11/02 04:27:12;;;;;;;8.65;2.03;;;;;;;6.78;100.00;96296.69;5068536;28;20044;-45
2023/11/02 04:29:39;;;;;;;7.05;2.35;;;;;;;6.80;100.00;96285.28;5066376;28;20051;-47
2023/11/02 04:32:06;;;;;;;13.70;1.58;;;;;;;6.82;100.00;96291.91;5058427;28;20045;-47
2023/11/02 04:34:33;;;;;;;8.48;2.72;;;;;;;6.81;100.00;96295.06;5065336;28;20072;-45
2023/11/02 04:36:59;;;;;;;8.93;1.52;;;;;;;6.79;100.00;96292.75;5068329;28;20048;-46
2023/11/02 04:39:27;;;;;;;7.93;1.75;;;;;;;6.79;100.00;96295.50;5066417;28;20551;-45
2023/11/02 04:41:54;;;;;;;8.15;1.45;;;;;;;6.77;100.00;96297.13;5068096;28;20147;-46
2023/11/02 04:44:20;;;;;;;2.45;1.15;;;;;;;6.78;100.00;96301.44;5068273;28;20043;-42
2023/11/02 04:46:47;;;;;;;8.65;1.55;;;;;;;6.75;100.00;96284.59;5068229;28;20066;-43
2023/11/02 04:49:14;;;;;;;10.93;1.95;;;;;;;6.73;100.00;96289.75;5068021;28;20032;-42
2023/11/02 04:51:53;;;;;;;4.65;1.65;;;;;;;6.70;100.00;96287.06;5068031;28;20052;-46
2023/11/02 04:54:27;;;;;;;5.85;2.17;;;;;;;6.69;100.00;96293.78;5062208;28;20551;-45
2023/11/02 04:56:53;;;;;;;9.15;1.23;;;;;;;6.67;100.00;96291.44;5066833;28;20040;-44
2023/11/02 04:59:21;;;;;;;7.05;1.52;;;;;;;6.64;100.00;96292.31;5068180;28;20054;-42
2023/11/02 05:01:48;;;;;;;11.10;1.85;;;;;;;6.63;100.00;96285.28;5067808;28;20130;-44
2023/11/02 05:04:15;;;;;;;8.23;1.25;;;;;;;6.63;100.00;96295.47;5068225;28;20059;-42
2023/11/02 05:06:42;;;;;;;4.72;1.67;;;;;;;6.59;100.00;96290.06;5066157;28;20071;-43
2023/11/02 05:09:09;;;;;;;6.07;1.42;;;;;;;6.54;100.00;96293.31;5067382;28;20044;-43
2023/11/02 05:11:36;;;;;;;6.05;1.70;;;;;;;6.52;100.00;96294.94;5066449;28;20036;-44
2023/11/02 05:14:03;;;;;;;6.65;1.33;;;;;;;6.46;100.00;96289.19;5066037;28;20037;-44
2023/11/02 05:16:30;;;;;;;5.43;1.10;;;;;;;6.42;100.00;96291.25;5066225;28;20043;-46
2023/11/02 05:18:56;;;;;;;9.85;3.30;;;;;;;6.40;100.00;96288.16;5065997;28;20040;-42
2023/11/02 05:21:23;;;;;;;6.60;1.50;;;;;;;6.38;100.00;96298.78;5067698;28;20569;-42
2023/11/02 05:23:50;;;;;;;6.82;1.70;;;;;;;6.34;100.00;96298.09;5067885;28;20033;-45
2023/11/02 05:26:17;;;;;;;14.07;1.10;;;;;;;6.33;100.00;96304.00;5067054;28;20064;-44
2023/11/02 05:28:44;;;;;;;10.02;1.40;;;;;;;6.30;100.00;96310.34;5065885;28;20025;-47
2023/11/02 05:31:11;;;;;;;4.63;1.13;;;;;;;6.29;100.00;96312.31;5066896;28;20041;-45
2023/11/02 05:33:37;;;;;;;9.73;1.33;;;;;;;6.28;100.00;96302.53;5066220;28;20037;-48
2023/11/02 05:36:05;;;;;;;7.57;1.30;;;;;;;6.29;100.00;96309.56;5067693;28;20052;-44
2023/11/02 05:38:31;;;;;;;10.07;1.50;;;;;;;6.29;100.00;96312.31;5065888;28;20113;-50
2023/11/02 05:40:58;;;;;;;2.70;0.85;;;;;;;6.27;100.00;96317.47;5066134;28;20441;-42
2023/11/02 05:43:25;;;;;;;6.35;1.60;;;;;;;6.25;100.00;96306.13;5067883;28;20091;-45
2023/11/02 05:45:52;;;;;;;8.43;1.30;;;;;;;6.26;100.00;96317.88;5065218;28;20116;-44
2023/11/02 05:48:19;;;;;;;6.10;0.82;;;;;;;6.24;100.00;96309.28;5055545;28;20033;-42
2023/11/02 05:50:46;;;;;;;6.32;1.38;;;;;;;6.23;100.00;96319.50;5067110;28;20036;-48
2023/11/02 05:53:13;;;;;;;4.93;0.98;;;;;;;6.20;100.00;96322.31;5065374;28;20041;-43
2023/11/02 05:55:40;;;;;;;6.47;2.60;;;;;;;6.15;100.00;96331.81;5065624;28;20112;-44
2023/11/02 05:58:06;;;;;;;7.95;1.60;;;;;;;6.12;100.00;96332.66;5067371;28;20098;-49
2023/11/02 06:00:33;;;;;;;9.05;2.30;;;;;;;6.12;100.00;96332.66;5066077;28;20078;-47
2023/11/02 06:03:00;;;;;;;7.30;2.15;;;;;;;6.10;100.00;96344.09;5057007;28;20136;-48
2023/11/02 06:05:27;;;;;;;5.70;1.13;;;;;;;6.03;100.00;96338.75;5052372;28;20032;-47
2023/11/02 06:07:54;;;;;;;6.05;1.48;;;;;;;6.01;100.00;96343.09;5066776;28;20029;-42
2023/11/02 06:10:21;;;;;;;7.00;1.60;;;;;;;5.98;100.00;96343.94;5031173;28;20111;-42
2023/11/02 06:12:47;;;;;;;6.32;1.98;;;;;;;5.95;100.00;96350.28;5065862;28;20032;-44
2023/11/02 06:15:14;;;;;;;5.03;1.60;;;;;;;5.95;100.00;96339.28;5066218;28;20040;-43
2023/11/02 06:17:41;;;;;;;10.40;1.58;;;;;;;5.95;100.00;96355.75;5066593;28;20665;-46
2023/11/02 06:20:08;;;;;;;4.85;1.17;;;;;;;5.92;100.00;96351.13;5064735;28;20036;-48
2023/11/02 06:22:35;;;;;;;6.32;1.50;;;;;;;5.91;100.00;96355.03;5066863;28;20116;-45
2023/11/02 06:25:02;;;;;;;6.90;1.00;;;;;;;5.89;100.00;96349.22;5061428;28;20041;-46
2023/11/02 06:27:29;;;;;;;14.35;2.08;;;;;;;5.88;100.00;96359.41;5065739;28;20119;-43
2023/11/02 06:29:56;;;;;;;7.47;1.20;;;;;;;5.86;100.00;96364.53;5065688;28;20036;-46
2023/11/02 06:32:23;;;;;;;7.15;1.33;;;;;;;5.86;100.00;96370.03;5065452;28;20049;-49
2023/11/02 06:34:49;;;;;;;7.68;2.72;;;;;;;5.87;100.00;96376.31;5062323;28;20032;-46
2023/11/02 06:37:19;;;;;;;8.40;1.40;;;;;;;5.89;100.00;96371.16;5070333;28;20452;-45
2023/11/02 06:39:45;;;;;;;8.45;1.50;;;;;;;5.87;100.00;96381.78;5064070;28;20044;-43
2023/11/02 06:42:12;;;;;;;3.88;1.17;;;;;;;5.86;100.00;96381.00;5069716;28;20045;-49
2023/11/02 06:44:43;;;;;;;5.28;0.85;;;;;;;5.86;100.00;96388.47;5063197;28;20127;-50
2023/11/02 06:47:11;;;;;;;7.30;1.40;;;;;;;5.87;100.00;96398.25;5066689;28;20037;-45
2023/11/02 06:49:38;;;;;;;10.48;1.75;;;;;;;5.85;100.00;96386.94;5060364;28;20068;-47
2023/11/02 06:52:05;;;;;;;7.72;1.30;;;;;;;5.86;100.00;96393.94;5070031;28;20040;-48
2023/11/02 06:54:32;;;;;;;8.32;1.17;;;;;;;5.85;100.00;96406.16;5070841;28;20040;-49
2023/11/02 06:57:01;;;;;;;8.15;1.70;;;;;;;5.85;100.00;96412.38;5069119;28;20055;-45
2023/11/02 06:59:27;;;;;;;4.32;1.17;;;;;;;5.84;100.00;96401.81;5070387;28;20068;-43
2023/11/02 07:01:54;;;;;;;2.10;1.40;;;;;;;5.84;100.00;96407.28;5069545;28;20059;-49
2023/11/02 07:04:21;;;;;;;10.18;2.30;;;;;;;5.83;100.00;96413.97;5069628;28;20539;-44
2023/11/02 07:06:48;;;;;;;6.43;1.42;;;;;;;5.85;100.00;96403.41;5070014;28;20037;-43
2023/11/02 07:09:15;;;;;;;7.68;1.20;;;;;;;5.85;100.00;96403.41;5069900;28;20041;-43
2023/11/02 07:11:42;;;;;;;7.97;1.52;;;;;;;5.85;100.00;96417.13;5066320;28;20135;-44
2023/11/02 07:14:10;;;;;;;5.72;1.60;;;;;;;5.85;100.00;96423.38;5070237;28;20068;-43
2023/11/02 07:16:37;;;;;;;6.60;1.10;;;;;;;5.84;100.00;96429.25;5069133;28;20037;-48
2023/11/02 07:19:05;;;;;;;7.47;1.25;;;;;;;5.85;100.00;96428.84;5069539;28;20409;-43
2023/11/02 07:21:33;;;;;;;4.25;1.00;;;;;;;5.85;100.00;96436.34;5067558;28;20047;-44
2023/11/02 07:24:02;;;;;;;5.03;1.17;;;;;;;5.83;100.00;96433.19;5069166;28;20576;-43
2023/11/02 07:26:29;;;;;;;13.43;2.53;;;;;;;5.83;100.00;96435.91;5065855;28;20041;-44
2023/11/02 07:28:57;;;;;;;8.15;1.50;;;;;;;5.80;100.00;96436.78;5068117;28;20153;-43
2023/11/02 07:31:24;;;;;;;5.40;1.13;;;;;;;5.78;100.00;96439.16;5066164;28;20036;-42
2023/11/02 07:33:50;;;;;;;10.10;1.60;;;;;;;5.78;100.00;96439.16;5063340;28;20037;-45
2023/11/02 07:36:19;;;;;;;3.85;1.30;;;;;;;5.78;100.00;96445.41;5069522;28;20159;-43
2023/11/02 07:38:52;;;;;;;5.38;1.50;;;;;;;5.76;100.00;96442.31;5068332;28;20402;-44
2023/11/02 07:41:20;;;;;;;10.93;1.60;;;;;;;5.75;100.00;96450.97;5063829;28;20044;-44
2023/11/02 07:43:47;;;;;;;7.07;1.00;;;;;;;5.77;100.00;96451.34;5067977;28;20048;-45
2023/11/02 07:46:14;;;;;;;5.95;2.33;;;;;;;5.77;100.00;96457.56;5057790;28;20036;-48
2023/11/02 07:48:41;;;;;;;6.95;1.63;;;;;;;5.77;100.00;96465.81;5069717;28;20151;-44
2023/11/02 07:51:09;;;;;;;10.20;1.15;;;;;;;5.78;100.00;96461.09;5069600;28;20044;-48
2023/11/02 07:53:35;;;;;;;13.13;1.70;;;;;;;5.75;100.00;96467.41;5069326;28;20611;-44
2023/11/02 07:56:02;;;;;;;2.03;1.17;;;;;;;5.75;100.00;96470.16;5069133;28;20049;-46
2023/11/02 07:58:29;;;;;;;9.25;1.85;;;;;;;5.75;100.00;96461.94;5064494;28;20056;-44
2023/11/02 08:00:56;;;;;;;4.13;1.50;;;;;;;5.74;100.00;96468.63;5076195;28;20555;-44
2023/11/02 08:03:24;;;;;;;5.38;1.90;;;;;;;5.72;100.00;96471.03;5072836;28;20101;-45
2023/11/02 08:05:51;;;;;;;6.13;1.25;;;;;;;5.73;100.00;96478.03;5068205;28;20033;-47
2023/11/02 08:08:19;;;;;;;8.73;1.50;;;;;;;5.74;100.00;96480.38;5068780;28;20565;-44
2023/11/02 08:10:46;;;;;;;10.20;1.58;;;;;;;5.78;100.00;96485.81;5068871;28;20042;-43
2023/11/02 08:13:13;;;;;;;6.47;1.23;;;;;;;5.80;100.00;96464.97;5070228;28;20085;-45
2023/11/02 08:15:41;;;;;;;9.95;1.88;;;;;;;5.84;100.00;96475.91;5080338;28;20038;-45
2023/11/02 08:18:08;;;;;;;10.40;1.35;;;;;;;5.88;100.00;96491.16;5067080;28;20720;-49
2023/11/02 08:20:35;;;;;;;6.82;1.27;;;;;;;5.90;100.00;96485.25;5067615;28;20048;-47
2023/11/02 08:23:02;;;;;;;3.75;1.10;;;;;;;5.92;100.00;96491.88;5068520;28;20507;-44
2023/11/02 08:25:29;;;;;;;7.53;1.50;;;;;;;5.96;100.00;96484.34;5068224;28;20041;-44
2023/11/02 08:27:59;;;;;;;12.45;3.22;;;;;;;6.00;100.00;96495.28;5067852;28;20136;-39
2023/11/02 08:30:27;;;;;;;5.50;1.45;;;;;;;6.03;100.00;96488.94;5067742;28;20098;-47
2023/11/02 08:32:54;;;;;;;4.03;1.13;;;;;;;6.04;100.00;96490.47;5068323;28;20032;-44
2023/11/02 08:35:21;;;;;;;6.32;1.20;;;;;;;6.10;100.00;96494.31;5060940;28;20563;-44
2023/11/02 08:37:49;;;;;;;10.32;1.35;;;;;;;6.13;100.00;96498.97;5067741;28;20040;-47
2023/11/02 08:40:21;;;;;;;4.07;1.40;;;;;;;6.15;100.00;96496.56;5063124;28;20032;-44
2023/11/02 08:42:48;;;;;;;10.27;1.50;;;;;;;6.18;100.00;96498.47;5063218;28;20072;-44
2023/11/02 08:45:17;;;;;;;8.98;1.70;;;;;;;6.21;100.00;96499.63;5058851;28;20049;-48
2023/11/02 08:47:44;;;;;;;4.97;2.10;;;;;;;6.23;100.00;96505.44;5065920;28;20448;-45
2023/11/02 08:50:12;;;;;;;14.85;2.10;;;;;;;6.25;100.00;96501.09;5067146;28;20033;-43
2023/11/02 08:52:39;;;;;;;10.70;1.92;;;;;;;6.30;100.00;96505.34;5065706;28;20040;-47
2023/11/02 08:55:06;;;;;;;10.18;2.47;;;;;;;6.32;100.00;96516.69;5064011;28;20946;-46
2023/11/02 08:57:33;;;;;;;5.63;1.55;;;;;;;6.34;100.00;96517.81;5064988;28;20044;-44
2023/11/02 09:00:01;;;;;;;7.93;1.60;;;;;;;6.38;100.00;96520.50;5069412;28;20072;-46
2023/11/02 09:02:30;;;;;;;10.18;1.58;;;;;;;6.38;100.00;96521.25;5066297;28;20052;-46
2023/11/02 09:04:56;;;;;;;9.15;2.88;;;;;;;6.40;100.00;96521.63;5064699;28;20048;-44
2023/11/02 09:07:24;;;;;;;7.57;1.40;;;;;;;6.40;100.00;96524.38;5059346;28;20047;-47
2023/11/02 09:09:51;;;;;;;7.07;2.17;;;;;;;6.41;100.00;96528.66;5057143;28;20119;-50
2023/11/02 09:12:17;;;;;;;5.15;1.77;;;;;;;6.43;100.00;96526.28;5067015;28;20102;-46
2023/11/02 09:14:44;;;;;;;8.00;2.08;;;;;;;6.41;100.00;96530.63;5066357;28;20899;-47
2023/11/02 09:17:12;;;;;;;11.73;2.63;;;;;;;6.39;100.00;96539.31;5040524;28;20049;-45
2023/11/02 09:19:41;;;;;;;14.27;2.67;;;;;;;6.39;100.00;96550.28;5060879;28;20059;-46
2023/11/02 09:22:08;;;;;;;7.50;2.58;;;;;;;6.39;100.00;96538.53;5066771;28;20048;-46
2023/11/02 09:24:35;;;;;;;7.82;2.60;;;;;;;6.41;100.00;96552.59;5066782;28;20040;-45
2023/11/02 09:27:02;;;;;;;8.00;3.10;;;;;;;6.40;100.00;96548.31;5056201;28;20126;-44
2023/11/02 09:29:28;;;;;;;13.07;3.40;;;;;;;6.40;100.00;96553.81;5058775;28;20047;-46
2023/11/02 09:31:55;;;;;;;7.97;3.28;;;;;;;6.39;100.00;96555.78;5060406;28;20048;-47
2023/11/02 09:34:30;;;;;;;9.45;2.58;;;;;;;6.38;100.00;96559.72;5065831;28;20076;-49
2023/11/02 09:36:59;;;;;;;6.32;2.28;;;;;;;6.40;100.00;96557.34;5055514;28;20052;-45
2023/11/02 09:39:26;;;;;;;5.22;2.47;;;;;;;6.44;100.00;96563.53;5063729;28;20040;-44
2023/11/02 09:41:52;;;;;;;5.80;3.03;;;;;;;6.49;100.00;96568.56;5065054;28;20040;-49
2023/11/02 09:44:19;;;;;;;6.35;2.72;;;;;;;6.57;100.00;96575.47;5065000;28;20773;-45
2023/11/02 09:46:46;;;;;;;4.25;2.20;;;;;;;6.63;100.00;96579.28;5065640;28;20052;-46
2023/11/02 09:49:13;;;;;;;5.40;2.88;;;;;;;6.68;100.00;96570.56;5064472;28;20124;-47
2023/11/02 09:51:42;;;;;;;7.80;2.03;;;;;;;6.74;100.00;96577.13;5065005;28;20040;-47
2023/11/02 09:54:09;;;;;;;6.78;1.88;;;;;;;6.80;100.00;96574.69;5064186;28;20032;-44
2023/11/02 09:56:36;;;;;;;6.35;2.30;;;;;;;6.87;100.00;96579.25;5059930;28;20032;-48
2023/11/02 09:59:03;;;;;;;5.95;1.77;;;;;;;6.92;100.00;96587.00;5060151;28;20033;-44
2023/11/02 10:01:30;;;;;;;2.80;1.77;;;;;;;6.96;99.81;96593.22;5057029;28;20107;-46
2023/11/02 10:03:57;;;;;;;7.90;2.88;;;;;;;6.98;99.75;96591.59;5038784;28;20216;-45
2023/11/02 10:06:25;;;;;;;7.53;1.80;;;;;;;7.06;99.85;96595.00;5033387;28;20041;-44
2023/11/02 10:08:51;;;;;;;5.70;1.80;;;;;;;7.17;99.85;96598.31;5044238;28;20045;-44
2023/11/02 10:11:19;;;;;;;4.20;1.42;;;;;;;7.24;99.65;96603.66;5043535;28;20037;-51
2023/11/02 10:13:50;;;;;;;7.70;1.90;;;;;;;7.33;99.57;96609.38;5040003;28;20044;-45
2023/11/02 10:16:24;;;;;;;6.38;1.10;;;;;;;7.44;99.43;96607.16;5043496;28;20670;-45
2023/11/02 10:18:51;;;;;;;4.20;1.15;;;;;;;7.54;99.17;96617.19;5036529;28;20059;-44
2023/11/02 10:21:19;;;;;;;4.50;1.10;;;;;;;7.65;98.95;96612.22;5043606;28;20131;-48
2023/11/02 10:23:55;;;;;;;3.80;1.00;;;;;;;7.75;98.84;96602.19;5043725;28;20095;-46
2023/11/02 10:26:24;;;;;;;7.95;1.13;;;;;;;7.83;98.73;96604.38;5035940;28;20048;-46
2023/11/02 10:28:54;;;;;;;6.53;1.77;;;;;;;7.93;98.48;96602.56;5032122;28;20038;-48
2023/11/02 10:31:24;;;;;;;6.40;2.30;;;;;;;8.04;98.38;96607.84;5026977;28;20808;-45
2023/11/02 10:33:51;;;;;;;8.15;1.75;;;;;;;8.11;98.46;96602.94;5043612;28;20029;-43
2023/11/02 10:36:19;;;;;;;6.32;1.42;;;;;;;8.19;98.42;96606.28;5043082;28;20037;-46
2023/11/02 10:38:46;;;;;;;8.60;1.30;;;;;;;8.28;98.40;96609.25;5045366;28;20444;-44
2023/11/02 10:41:16;;;;;;;6.13;1.08;;;;;;;8.37;98.37;96612.19;5045116;28;20041;-44
2023/11/02 10:43:47;;;;;;;7.40;1.92;;;;;;;8.43;98.34;96605.72;5044939;28;20410;-44
2023/11/02 10:46:16;;;;;;;4.53;1.40;;;;;;;8.49;98.23;96625.28;5041735;28;20140;-45
2023/11/02 10:48:45;;;;;;;6.30;1.50;;;;;;;8.57;98.29;96632.16;5045309;28;20045;-48
2023/11/02 10:51:18;;;;;;;3.22;1.40;;;;;;;8.65;98.25;96636.31;5041329;28;20041;-47
2023/11/02 10:54:00;;;;;;;3.58;1.45;;;;;;;8.73;98.18;96631.38;5043761;28;20803;-45
2023/11/02 10:56:38;;;;;;;5.45;1.40;;;;;;;8.78;97.92;96631.63;5042834;28;20037;-48
2023/11/02 10:59:07;;;;;;;2.00;1.30;;;;;;;8.83;97.86;96635.84;5028284;28;20057;-46
2023/11/02 11:01:35;;;;;;;3.72;1.15;;;;;;;8.87;97.79;96626.25;5045557;28;20041;-45
2023/11/02 11:04:04;;;;;;;6.50;1.02;;;;;;;8.92;97.67;96642.28;5044400;28;20045;-51
2023/11/02 11:06:32;;;;;;;6.45;1.85;;;;;;;8.99;97.49;96647.63;5044868;28;20040;-49
2023/11/02 11:09:00;;;;;;;4.07;0.90;;;;;;;9.03;97.54;96653.81;5044085;28;20042;-47
2023/11/02 11:11:29;;;;;;;2.92;1.10;;;;;;;9.09;97.56;96646.56;5045593;28;20052;-49
2023/11/02 11:13:58;;;;;;;5.65;1.10;;;;;;;9.11;97.28;96657.94;5043979;28;20041;-44
2023/11/02 11:16:25;;;;;;;5.80;1.20;;;;;;;9.13;97.19;96663.03;5044254;28;20053;-47
2023/11/02 11:18:53;;;;;;;2.58;1.10;;;;;;;9.14;97.16;96659.84;5048413;28;20076;-48
2023/11/02 11:21:21;;;;;;;4.18;1.27;;;;;;;9.14;97.04;96659.06;5048733;28;20068;-46
2023/11/02 11:23:48;;;;;;;2.60;0.77;;;;;;;9.11;96.84;96668.97;5027537;28;20029;-44
2023/11/02 11:26:19;;;;;;;7.63;2.20;;;;;;;9.06;96.53;96658.47;5048552;28;20089;-44
2023/11/02 11:28:46;;;;;;;5.07;1.60;;;;;;;9.02;96.16;96660.56;5038512;28;20091;-46
2023/11/02 11:31:54;;;;;;;2.80;0.90;;;;;;;8.96;96.46;96659.53;5044680;28;20037;-46
2023/11/02 11:34:21;;;;;;;5.35;1.30;;;;;;;8.93;96.40;96659.63;5042184;28;20371;-44
2023/11/02 11:36:48;;;;;;;2.90;1.00;;;;;;;8.91;96.35;96664.78;5048260;28;20060;-44
2023/11/02 11:39:35;;;;;;;6.53;1.35;;;;;;;8.88;95.99;96671.16;5043452;28;20144;-44
2023/11/02 11:42:02;;;;;;;3.25;0.65;;;;;;;8.86;96.28;96666.09;5048050;28;20059;-43
2023/11/02 11:44:29;;;;;;;4.28;2.10;;;;;;;8.83;96.00;96666.19;5047525;28;20037;-44
2023/11/02 11:46:57;;;;;;;9.73;2.20;;;;;;;8.82;95.93;96668.16;5035511;28;20045;-49
2023/11/02 11:49:36;;;;;;;4.72;1.88;;;;;;;8.78;95.72;96664.72;5047193;28;20082;-46